PWSweather.com
Personal Weather Stations
Station Observations
KJ4AJP
Beautiful Downtown Gardner, Martin, TN 38237

Beautiful Downtown GardnerMartin, TN 38237

Lat: 36.358, Lon: -88.8994

Elevation: 384.3

Station Type: TP1080WC

http://weather.mambm.com/

High Low Average
Temperature 68.4°F20.2°C 53.4°F11.9°C 61.4°F16.3°C
Dew Point 68.1°F20.1°C 49.7°F9.8°C 60.3°F15.7°C
Winds 12.1 mph 19.5 kmh 0.7 mph 1.1 kmh 4.0 mph SSE6.4 kmh SSE
Wind Gusts 25.1 mph40.4 kmh 3.1 mph5.0 kmh 12.0 mph19.3 kmh
Humidity 99% 83% 96%
Pressure 29.76 in1007.8 mb 29.40 in995.6 mb -
Precipitation 1.31 in33.3 mm - -
Hour Temp Dew Point Humidity Winds Wind Gusts Pressure Precip Precip Rate Daily Precip Total
12:00 AM 63.1°F17.3°C 62.9°F17.2°C 99% 1.6 mph SE2.6 kmh SE 6.0 mph9.7 kmh 29.79 in1008.8 mb 0.14 in3.6 mm 0.00 in0.0 mm 0.65 in16.5 mm
12:15 AM 63.1°F17.3°C 62.9°F17.2°C 99% 0.7 mph SE1.1 kmh SE 7.6 mph12.2 kmh 29.79 in1008.8 mb 0.12 in3.0 mm 0.00 in0.0 mm 0.69 in17.5 mm
12:30 AM 63.0°F17.2°C 62.7°F17.1°C 99% 3.8 mph ESE6.1 kmh ESE 11.4 mph18.3 kmh 29.78 in1008.5 mb 0.11 in2.8 mm 0.00 in0.0 mm 0.72 in18.3 mm
12:45 AM 63.0°F17.2°C 62.7°F17.1°C 99% 7.6 mph ESE12.2 kmh ESE 13.6 mph21.9 kmh 29.77 in1008.1 mb 0.13 in3.3 mm 0.08 in2.0 mm 0.78 in19.8 mm
01:00 AM 63.0°F17.2°C 62.7°F17.1°C 99% 4.5 mph ESE7.2 kmh ESE 13.6 mph21.9 kmh 29.76 in1007.8 mb 0.15 in3.8 mm 0.03 in0.8 mm 0.18 in4.6 mm
01:15 AM 62.8°F17.1°C 62.5°F16.9°C 99% 4.5 mph SE7.2 kmh SE 14.5 mph23.3 kmh 29.75 in1007.5 mb 0.13 in3.3 mm 0.00 in0.0 mm 0.01 in0.3 mm
01:30 AM 62.4°F16.9°C 62.2°F16.8°C 99% 6.9 mph SE11.1 kmh SE 14.5 mph23.3 kmh 29.74 in1007.1 mb 0.12 in3.0 mm 0.00 in0.0 mm 0.04 in1.0 mm
01:45 AM 62.2°F16.8°C 62.0°F16.7°C 99% 4.5 mph SE7.2 kmh SE 14.5 mph23.3 kmh 29.73 in1006.8 mb 0.09 in2.3 mm 0.00 in0.0 mm 0.07 in1.8 mm
02:00 AM 62.1°F16.7°C 61.8°F16.6°C 99% 4.5 mph SE7.2 kmh SE 15.2 mph24.5 kmh 29.72 in1006.4 mb 0.09 in2.3 mm 0.00 in0.0 mm 0.09 in2.3 mm
02:15 AM 61.9°F16.6°C 61.6°F16.4°C 99% 7.6 mph SE12.2 kmh SE 13.6 mph21.9 kmh 29.70 in1005.8 mb 0.12 in3.0 mm 0.12 in3.0 mm 0.13 in3.3 mm
02:30 AM 61.5°F16.4°C 61.3°F16.3°C 99% 6.9 mph SE11.1 kmh SE 14.5 mph23.3 kmh 29.70 in1005.8 mb 0.14 in3.6 mm 0.08 in2.0 mm 0.18 in4.6 mm
02:45 AM 61.3°F16.3°C 61.1°F16.2°C 99% 8.3 mph E13.4 kmh E 15.9 mph25.6 kmh 29.68 in1005.1 mb 0.13 in3.3 mm 0.00 in0.0 mm 0.20 in5.1 mm
03:00 AM 61.3°F16.3°C 61.1°F16.2°C 99% 9.2 mph SE14.8 kmh SE 16.8 mph27.0 kmh 29.66 in1004.4 mb 0.15 in3.8 mm 0.03 in0.8 mm 0.25 in6.4 mm
03:15 AM 61.2°F16.2°C 60.9°F16.1°C 99% 8.3 mph SE13.4 kmh SE 22.1 mph35.6 kmh 29.63 in1003.4 mb 0.17 in4.3 mm 0.08 in2.0 mm 0.30 in7.6 mm
03:30 AM 61.0°F16.1°C 60.7°F15.9°C 99% 12.1 mph ESE19.5 kmh ESE 25.1 mph40.4 kmh 29.62 in1003.0 mb 0.15 in3.8 mm 0.00 in0.0 mm 0.33 in8.4 mm
03:45 AM 61.0°F16.1°C 60.7°F15.9°C 99% 8.3 mph SE13.4 kmh SE 16.8 mph27.0 kmh 29.61 in1002.7 mb 0.13 in3.3 mm 0.00 in0.0 mm 0.33 in8.4 mm
04:00 AM 61.2°F16.2°C 60.9°F16.1°C 99% 9.2 mph ESE14.8 kmh ESE 21.3 mph34.3 kmh 29.61 in1002.7 mb 0.09 in2.3 mm 0.00 in0.0 mm 0.34 in8.6 mm
04:15 AM 61.0°F16.1°C 60.7°F15.9°C 99% 9.2 mph SE14.8 kmh SE 19.7 mph31.7 kmh 29.60 in1002.4 mb 0.05 in1.3 mm 0.00 in0.0 mm 0.34 in8.6 mm
04:30 AM 61.0°F16.1°C 60.7°F15.9°C 99% 5.4 mph SE8.7 kmh SE 17.4 mph28.0 kmh 29.60 in1002.4 mb 0.07 in1.8 mm 0.08 in2.0 mm 0.40 in10.2 mm
04:45 AM 60.8°F16.0°C 60.5°F15.8°C 99% 6.9 mph SE11.1 kmh SE 13.6 mph21.9 kmh 29.59 in1002.0 mb 0.08 in2.0 mm 0.04 in1.0 mm 0.41 in10.4 mm
05:00 AM 60.6°F15.9°C 60.4°F15.8°C 99% 5.4 mph SE8.7 kmh SE 16.8 mph27.0 kmh 29.59 in1002.0 mb 0.12 in3.0 mm 0.05 in1.3 mm 0.46 in11.7 mm
05:15 AM 60.6°F15.9°C 60.4°F15.8°C 99% 3.1 mph S5.0 kmh S 14.5 mph23.3 kmh 29.59 in1002.0 mb 0.14 in3.6 mm 0.08 in2.0 mm 0.48 in12.2 mm
05:30 AM 60.6°F15.9°C 60.4°F15.8°C 99% 3.8 mph SE6.1 kmh SE 12.1 mph19.5 kmh 29.59 in1002.0 mb 0.11 in2.8 mm 0.00 in0.0 mm 0.52 in13.2 mm
05:45 AM 60.8°F16.0°C 60.5°F15.8°C 99% 4.5 mph S7.2 kmh S 13.0 mph20.9 kmh 29.59 in1002.0 mb 0.17 in4.3 mm 0.24 in6.1 mm 0.58 in14.7 mm
06:00 AM 61.0°F16.1°C 60.7°F15.9°C 99% 3.8 mph S6.1 kmh S 11.4 mph18.3 kmh 29.60 in1002.4 mb 0.15 in3.8 mm 0.00 in0.0 mm 0.61 in15.5 mm
06:15 AM 61.3°F16.3°C 61.1°F16.2°C 99% 3.8 mph SSW6.1 kmh SSW 17.4 mph28.0 kmh 29.64 in1003.7 mb 0.14 in3.6 mm 0.00 in0.0 mm 0.64 in16.3 mm
06:30 AM 60.4°F15.8°C 60.2°F15.7°C 99% 2.2 mph W3.5 kmh W 15.9 mph25.6 kmh 29.64 in1003.7 mb 0.22 in5.6 mm 0.32 in8.1 mm 0.74 in18.8 mm
06:45 AM 59.7°F15.4°C 59.5°F15.3°C 99% 1.6 mph W2.6 kmh W 14.5 mph23.3 kmh 29.64 in1003.7 mb 0.22 in5.6 mm 0.00 in0.0 mm 0.80 in20.3 mm
07:00 AM 59.2°F15.1°C 58.9°F14.9°C 99% 2.2 mph WSW3.5 kmh WSW 8.3 mph13.4 kmh 29.63 in1003.4 mb 0.20 in5.1 mm 0.00 in0.0 mm 0.81 in20.6 mm
07:15 AM 59.0°F15.0°C 58.7°F14.8°C 99% 2.2 mph SSW3.5 kmh SSW 5.4 mph8.7 kmh 29.63 in1003.4 mb 0.18 in4.6 mm 0.00 in0.0 mm 0.81 in20.6 mm
07:30 AM 58.8°F14.9°C 58.6°F14.8°C 99% 1.6 mph SSE2.6 kmh SSE 4.5 mph7.2 kmh 29.61 in1002.7 mb 0.08 in2.0 mm 0.00 in0.0 mm 0.83 in21.1 mm
07:45 AM 58.6°F14.8°C 58.4°F14.7°C 99% 1.6 mph SE2.6 kmh SE 3.8 mph6.1 kmh 29.60 in1002.4 mb 0.02 in0.5 mm 0.00 in0.0 mm 0.83 in21.1 mm
08:00 AM 58.1°F14.5°C 57.8°F14.3°C 99% 0.7 mph SE1.1 kmh SE 5.4 mph8.7 kmh 29.60 in1002.4 mb 0.04 in1.0 mm 0.03 in0.8 mm 0.85 in21.6 mm
08:15 AM 58.5°F14.7°C 58.2°F14.6°C 99% 1.6 mph E2.6 kmh E 3.1 mph5.0 kmh 29.59 in1002.0 mb 0.07 in1.8 mm 0.12 in3.0 mm 0.89 in22.6 mm
08:30 AM 58.5°F14.7°C 58.2°F14.6°C 99% 1.6 mph SE2.6 kmh SE 3.1 mph5.0 kmh 29.60 in1002.4 mb 0.13 in3.3 mm 0.24 in6.1 mm 0.96 in24.4 mm
08:45 AM 58.5°F14.7°C 58.2°F14.6°C 99% 3.1 mph SE5.0 kmh SE 5.4 mph8.7 kmh 29.62 in1003.0 mb 0.25 in6.4 mm 0.48 in12.2 mm 1.09 in27.7 mm
09:00 AM 58.5°F14.7°C 58.2°F14.6°C 99% 2.2 mph ESE3.5 kmh ESE 6.0 mph9.7 kmh 29.61 in1002.7 mb 0.37 in9.4 mm 0.16 in4.1 mm 1.22 in31.0 mm
09:15 AM 58.5°F14.7°C 58.2°F14.6°C 99% 0.7 mph ESE1.1 kmh ESE 6.0 mph9.7 kmh 29.59 in1002.0 mb 0.43 in10.9 mm 0.24 in6.1 mm 1.31 in33.3 mm
09:30 AM 58.8°F14.9°C 58.6°F14.8°C 99% 3.1 mph E5.0 kmh E 6.0 mph9.7 kmh 29.57 in1001.4 mb 0.35 in8.9 mm 0.00 in0.0 mm 1.31 in33.3 mm
09:45 AM 59.0°F15.0°C 58.7°F14.8°C 99% 3.8 mph E6.1 kmh E 10.7 mph17.2 kmh 29.55 in1000.7 mb 0.22 in5.6 mm 0.00 in0.0 mm 1.31 in33.3 mm
10:00 AM 59.2°F15.1°C 58.9°F14.9°C 99% 2.2 mph ESE3.5 kmh ESE 10.7 mph17.2 kmh 29.57 in1001.4 mb 0.09 in2.3 mm 0.00 in0.0 mm 1.31 in33.3 mm
10:15 AM 59.7°F15.4°C 59.5°F15.3°C 99% 5.4 mph E8.7 kmh E 10.7 mph17.2 kmh 29.55 in1000.7 mb 0.00 in0.0 mm 0.00 in0.0 mm 1.31 in33.3 mm
10:30 AM 60.1°F15.6°C 59.8°F15.4°C 99% 4.5 mph ESE7.2 kmh ESE 14.5 mph23.3 kmh 29.55 in1000.7 mb 0.00 in0.0 mm 0.00 in0.0 mm 1.31 in33.3 mm
10:45 AM 60.6°F15.9°C 60.4°F15.8°C 99% 3.8 mph SE6.1 kmh SE 17.4 mph28.0 kmh 29.54 in1000.3 mb 0.00 in0.0 mm 0.00 in0.0 mm 1.31 in33.3 mm
11:00 AM 61.3°F16.3°C 61.1°F16.2°C 99% 8.3 mph ESE13.4 kmh ESE 13.6 mph21.9 kmh 29.52 in999.7 mb 0.00 in0.0 mm 0.00 in0.0 mm 1.31 in33.3 mm
11:15 AM 61.9°F16.6°C 61.6°F16.4°C 99% 3.8 mph SE6.1 kmh SE 17.4 mph28.0 kmh 29.51 in999.3 mb 0.00 in0.0 mm 0.00 in0.0 mm 1.31 in33.3 mm
11:30 AM 62.2°F16.8°C 62.0°F16.7°C 99% 6.0 mph SE9.7 kmh SE 21.3 mph34.3 kmh 29.52 in999.7 mb 0.00 in0.0 mm 0.00 in0.0 mm 1.31 in33.3 mm
11:45 AM 63.0°F17.2°C 62.7°F17.1°C 99% 1.6 mph SSE2.6 kmh SSE 19.7 mph31.7 kmh 29.52 in999.7 mb 0.00 in0.0 mm 0.00 in0.0 mm 1.31 in33.3 mm
12:00 PM 63.3°F17.4°C 63.1°F17.3°C 99% 1.6 mph SE2.6 kmh SE 15.2 mph24.5 kmh 29.51 in999.3 mb 0.00 in0.0 mm 0.00 in0.0 mm 1.31 in33.3 mm
12:15 PM 63.5°F17.5°C 63.2°F17.3°C 99% 3.1 mph SE5.0 kmh SE 13.6 mph21.9 kmh 29.50 in999.0 mb 0.00 in0.0 mm 0.00 in0.0 mm 1.31 in33.3 mm
12:30 PM 64.6°F18.1°C 64.3°F17.9°C 99% 3.8 mph SE6.1 kmh SE 17.4 mph28.0 kmh 29.49 in998.6 mb 0.00 in0.0 mm 0.00 in0.0 mm 1.31 in33.3 mm
12:45 PM 65.3°F18.5°C 65.0°F18.3°C 99% 5.4 mph SE8.7 kmh SE 15.9 mph25.6 kmh 29.48 in998.3 mb 0.00 in0.0 mm 0.00 in0.0 mm 1.31 in33.3 mm
01:00 PM 64.9°F18.3°C 64.7°F18.2°C 99% 2.2 mph SSE3.5 kmh SSE 16.8 mph27.0 kmh 29.47 in998.0 mb 0.00 in0.0 mm 0.00 in0.0 mm 1.31 in33.3 mm
01:15 PM 65.8°F18.8°C 65.6°F18.7°C 99% 5.4 mph SSE8.7 kmh SSE 15.2 mph24.5 kmh 29.46 in997.6 mb 0.00 in0.0 mm 0.00 in0.0 mm 1.31 in33.3 mm
01:30 PM 66.9°F19.4°C 66.7°F19.3°C 99% 7.6 mph SSE12.2 kmh SSE 19.7 mph31.7 kmh 29.45 in997.3 mb 0.00 in0.0 mm 0.00 in0.0 mm 1.31 in33.3 mm
01:45 PM 66.6°F19.2°C 66.3°F19.1°C 99% 9.8 mph SSE15.8 kmh SSE 15.2 mph24.5 kmh 29.45 in997.3 mb 0.00 in0.0 mm 0.00 in0.0 mm 1.31 in33.3 mm
02:00 PM 66.9°F19.4°C 66.7°F19.3°C 99% 3.8 mph SE6.1 kmh SE 14.5 mph23.3 kmh 29.43 in996.6 mb 0.00 in0.0 mm 0.00 in0.0 mm 1.31 in33.3 mm
02:15 PM 68.4°F20.2°C 68.1°F20.1°C 99% 6.9 mph SSE11.1 kmh SSE 18.3 mph29.5 kmh 29.42 in996.3 mb 0.00 in0.0 mm 0.00 in0.0 mm 1.31 in33.3 mm
02:30 PM 68.2°F20.1°C 67.3°F19.6°C 97% 3.1 mph S5.0 kmh S 15.2 mph24.5 kmh 29.43 in996.6 mb 0.00 in0.0 mm 0.00 in0.0 mm 1.31 in33.3 mm
02:45 PM 67.5°F19.7°C 66.9°F19.4°C 98% 7.6 mph SSE12.2 kmh SSE 15.9 mph25.6 kmh 29.43 in996.6 mb 0.00 in0.0 mm 0.00 in0.0 mm 1.31 in33.3 mm
03:00 PM 66.6°F19.2°C 66.3°F19.1°C 99% 9.2 mph SSE14.8 kmh SSE 13.0 mph20.9 kmh 29.42 in996.3 mb 0.00 in0.0 mm 0.00 in0.0 mm 1.31 in33.3 mm
03:15 PM 66.0°F18.9°C 65.8°F18.8°C 99% 4.5 mph SE7.2 kmh SE 15.2 mph24.5 kmh 29.42 in996.3 mb 0.00 in0.0 mm 0.00 in0.0 mm 1.31 in33.3 mm
03:30 PM 66.2°F19.0°C 65.9°F18.8°C 99% 4.5 mph SSE7.2 kmh SSE 14.5 mph23.3 kmh 29.42 in996.3 mb 0.00 in0.0 mm 0.00 in0.0 mm 1.31 in33.3 mm
03:45 PM 66.9°F19.4°C 66.7°F19.3°C 99% 4.5 mph SSE7.2 kmh SSE 15.9 mph25.6 kmh 29.40 in995.6 mb 0.00 in0.0 mm 0.00 in0.0 mm 1.31 in33.3 mm
04:00 PM 67.1°F19.5°C 66.8°F19.3°C 99% 3.1 mph SSE5.0 kmh SSE 13.0 mph20.9 kmh 29.41 in995.9 mb 0.00 in0.0 mm 0.00 in0.0 mm 1.31 in33.3 mm
04:15 PM 66.9°F19.4°C 66.7°F19.3°C 99% 3.8 mph SE6.1 kmh SE 15.9 mph25.6 kmh 29.40 in995.6 mb 0.00 in0.0 mm 0.00 in0.0 mm 1.31 in33.3 mm
04:30 PM 66.4°F19.1°C 66.1°F18.9°C 99% 3.8 mph SE6.1 kmh SE 15.2 mph24.5 kmh 29.41 in995.9 mb 0.00 in0.0 mm 0.00 in0.0 mm 1.31 in33.3 mm
04:45 PM 66.0°F18.9°C 65.8°F18.8°C 99% 4.5 mph SSE7.2 kmh SSE 14.5 mph23.3 kmh 29.41 in995.9 mb 0.00 in0.0 mm 0.00 in0.0 mm 1.31 in33.3 mm
05:00 PM 65.8°F18.8°C 65.6°F18.7°C 99% 3.8 mph SSE6.1 kmh SSE 13.0 mph20.9 kmh 29.40 in995.6 mb 0.00 in0.0 mm 0.00 in0.0 mm 1.31 in33.3 mm
05:15 PM 65.3°F18.5°C 65.0°F18.3°C 99% 2.2 mph SE3.5 kmh SE 10.7 mph17.2 kmh 29.41 in995.9 mb 0.00 in0.0 mm 0.00 in0.0 mm 1.31 in33.3 mm
05:30 PM 64.9°F18.3°C 64.7°F18.2°C 99% 6.9 mph SSE11.1 kmh SSE 11.4 mph18.3 kmh 29.41 in995.9 mb 0.00 in0.0 mm 0.00 in0.0 mm 1.31 in33.3 mm
05:45 PM 64.6°F18.1°C 64.3°F17.9°C 99% 5.4 mph SSE8.7 kmh SSE 12.1 mph19.5 kmh 29.42 in996.3 mb 0.00 in0.0 mm 0.00 in0.0 mm 1.31 in33.3 mm
06:00 PM 64.4°F18.0°C 64.1°F17.8°C 99% 3.1 mph S5.0 kmh S 10.7 mph17.2 kmh 29.42 in996.3 mb 0.00 in0.0 mm 0.00 in0.0 mm 1.31 in33.3 mm
06:15 PM 64.2°F17.9°C 64.0°F17.8°C 99% 3.1 mph S5.0 kmh S 11.4 mph18.3 kmh 29.42 in996.3 mb 0.00 in0.0 mm 0.00 in0.0 mm 1.31 in33.3 mm
06:30 PM 63.9°F17.7°C 63.6°F17.6°C 99% 6.0 mph S9.7 kmh S 9.8 mph15.8 kmh 29.43 in996.6 mb 0.00 in0.0 mm 0.00 in0.0 mm 1.31 in33.3 mm
06:45 PM 63.5°F17.5°C 63.2°F17.3°C 99% 5.4 mph S8.7 kmh S 10.7 mph17.2 kmh 29.43 in996.6 mb 0.00 in0.0 mm 0.00 in0.0 mm 1.31 in33.3 mm
07:00 PM 63.3°F17.4°C 63.1°F17.3°C 99% 6.9 mph S11.1 kmh S 15.9 mph25.6 kmh 29.44 in997.0 mb 0.00 in0.0 mm 0.00 in0.0 mm 1.31 in33.3 mm
07:15 PM 62.8°F17.1°C 61.9°F16.6°C 97% 3.8 mph S6.1 kmh S 11.4 mph18.3 kmh 29.45 in997.3 mb 0.00 in0.0 mm 0.00 in0.0 mm 1.31 in33.3 mm
07:30 PM 61.7°F16.5°C 60.3°F15.7°C 95% 3.1 mph S5.0 kmh S 9.2 mph14.8 kmh 29.44 in997.0 mb 0.00 in0.0 mm 0.00 in0.0 mm 1.31 in33.3 mm
07:45 PM 61.0°F16.1°C 58.7°F14.8°C 92% 4.5 mph S7.2 kmh S 11.4 mph18.3 kmh 29.44 in997.0 mb 0.00 in0.0 mm 0.00 in0.0 mm 1.31 in33.3 mm
08:00 PM 60.6°F15.9°C 57.4°F14.1°C 89% 3.8 mph S6.1 kmh S 9.8 mph15.8 kmh 29.45 in997.3 mb 0.00 in0.0 mm 0.00 in0.0 mm 1.31 in33.3 mm
08:15 PM 60.3°F15.7°C 56.4°F13.6°C 87% 4.5 mph SSW7.2 kmh SSW 9.8 mph15.8 kmh 29.46 in997.6 mb 0.00 in0.0 mm 0.00 in0.0 mm 1.31 in33.3 mm
08:30 PM 60.1°F15.6°C 55.6°F13.1°C 85% 3.1 mph S5.0 kmh S 10.7 mph17.2 kmh 29.48 in998.3 mb 0.00 in0.0 mm 0.00 in0.0 mm 1.31 in33.3 mm
08:45 PM 60.1°F15.6°C 55.2°F12.9°C 84% 4.5 mph S7.2 kmh S 9.2 mph14.8 kmh 29.48 in998.3 mb 0.00 in0.0 mm 0.00 in0.0 mm 1.31 in33.3 mm
09:00 PM 60.1°F15.6°C 54.9°F12.7°C 83% 2.2 mph SW3.5 kmh SW 9.8 mph15.8 kmh 29.49 in998.6 mb 0.00 in0.0 mm 0.00 in0.0 mm 1.31 in33.3 mm
09:15 PM 59.5°F15.3°C 54.4°F12.4°C 83% 1.6 mph SSW2.6 kmh SSW 8.3 mph13.4 kmh 29.50 in999.0 mb 0.00 in0.0 mm 0.00 in0.0 mm 1.31 in33.3 mm
09:30 PM 59.0°F15.0°C 54.2°F12.3°C 84% 1.6 mph SSW2.6 kmh SSW 6.0 mph9.7 kmh 29.51 in999.3 mb 0.00 in0.0 mm 0.00 in0.0 mm 1.31 in33.3 mm
09:45 PM 57.9°F14.4°C 53.4°F11.9°C 85% 3.1 mph SSW5.0 kmh SSW 7.6 mph12.2 kmh 29.51 in999.3 mb 0.00 in0.0 mm 0.00 in0.0 mm 1.31 in33.3 mm
10:00 PM 56.8°F13.8°C 52.7°F11.5°C 86% 3.1 mph S5.0 kmh S 6.0 mph9.7 kmh 29.52 in999.7 mb 0.00 in0.0 mm 0.00 in0.0 mm 1.31 in33.3 mm
10:15 PM 56.1°F13.4°C 52.3°F11.3°C 87% 2.2 mph SSW3.5 kmh SSW 4.5 mph7.2 kmh 29.53 in1000.0 mb 0.00 in0.0 mm 0.00 in0.0 mm 1.31 in33.3 mm
10:30 PM 55.8°F13.2°C 52.3°F11.3°C 88% 3.1 mph SW5.0 kmh SW 6.9 mph11.1 kmh 29.53 in1000.0 mb 0.00 in0.0 mm 0.00 in0.0 mm 1.31 in33.3 mm
10:45 PM 55.6°F13.1°C 52.1°F11.2°C 88% 2.2 mph SW3.5 kmh SW 9.2 mph14.8 kmh 29.54 in1000.3 mb 0.00 in0.0 mm 0.00 in0.0 mm 1.31 in33.3 mm
11:00 PM 56.3°F13.5°C 52.5°F11.4°C 87% 3.1 mph S5.0 kmh S 8.3 mph13.4 kmh 29.54 in1000.3 mb 0.00 in0.0 mm 0.00 in0.0 mm 1.31 in33.3 mm
11:15 PM 56.5°F13.6°C 52.4°F11.3°C 86% 2.2 mph S3.5 kmh S 6.0 mph9.7 kmh 29.54 in1000.3 mb 0.00 in0.0 mm 0.00 in0.0 mm 1.31 in33.3 mm
11:30 PM 55.9°F13.3°C 51.5°F10.8°C 85% 2.2 mph SSW3.5 kmh SSW 7.6 mph12.2 kmh 29.54 in1000.3 mb 0.00 in0.0 mm 0.00 in0.0 mm 1.31 in33.3 mm
11:45 PM 55.0°F12.8°C 50.9°F10.5°C 86% 1.6 mph S2.6 kmh S 5.4 mph8.7 kmh 29.55 in1000.7 mb 0.00 in0.0 mm 0.00 in0.0 mm 1.31 in33.3 mm